createdAt,value
2022-11-08T00:00:24.101Z,10.40
2022-11-08T00:02:26.941Z,10.90
2022-11-08T00:04:30.100Z,12.82
2022-11-08T00:06:51.753Z,11.65
2022-11-08T00:09:12.892Z,12.57
2022-11-08T00:11:34.128Z,12.95
2022-11-08T00:13:55.220Z,10.83
2022-11-08T00:16:01.003Z,11.82
2022-11-08T00:18:04.007Z,11.68
2022-11-08T00:20:07.624Z,11.80
2022-11-08T00:22:11.557Z,11.27
2022-11-08T00:24:14.254Z,11.07
2022-11-08T00:26:17.078Z,10.95
2022-11-08T00:28:19.933Z,11.85
2022-11-08T00:30:22.717Z,10.70
2022-11-08T00:32:26.202Z,11.70
2022-11-08T00:34:28.856Z,12.15
2022-11-08T00:36:31.489Z,11.55
2022-11-08T00:38:34.074Z,12.50
2022-11-08T00:40:36.691Z,11.23
2022-11-08T00:42:39.333Z,12.73
2022-11-08T00:44:42.174Z,12.57
2022-11-08T00:46:45.234Z,12.13
2022-11-08T00:48:47.871Z,12.63
2022-11-08T00:50:50.527Z,12.73
2022-11-08T00:52:53.127Z,12.57
2022-11-08T00:54:55.898Z,12.30
2022-11-08T00:56:58.587Z,12.07
2022-11-08T00:59:01.431Z,13.32
2022-11-08T01:01:16.015Z,13.00
2022-11-08T01:03:21.844Z,12.10
2022-11-08T01:05:24.454Z,12.13
2022-11-08T01:07:27.106Z,11.68
2022-11-08T01:09:29.788Z,13.25
2022-11-08T01:11:32.522Z,13.05
2022-11-08T01:13:35.618Z,12.43
2022-11-08T01:15:41.723Z,13.18
2022-11-08T01:17:44.335Z,13.40
2022-11-08T01:19:47.011Z,14.20
2022-11-08T01:21:49.644Z,11.77
2022-11-08T01:23:54.423Z,12.07
2022-11-08T01:25:57.074Z,12.35
2022-11-08T01:27:59.663Z,14.48
2022-11-08T01:30:02.331Z,12.27
2022-11-08T01:32:06.186Z,11.98
2022-11-08T01:34:09.207Z,13.40
2022-11-08T01:36:15.586Z,10.90
2022-11-08T01:38:18.418Z,12.38
2022-11-08T01:40:21.308Z,11.50
2022-11-08T01:42:31.903Z,11.63
2022-11-08T01:44:34.527Z,13.15
2022-11-08T01:46:44.641Z,12.80
2022-11-08T01:49:00.890Z,12.02
2022-11-08T01:51:03.841Z,12.02
2022-11-08T01:53:06.426Z,11.98
2022-11-08T01:55:30.516Z,11.48
2022-11-08T01:57:44.437Z,11.10
2022-11-08T01:59:51.338Z,10.98
2022-11-08T02:01:54.077Z,12.43
2022-11-08T02:03:58.085Z,11.60
2022-11-08T02:06:02.035Z,13.45
2022-11-08T02:08:27.744Z,12.77
2022-11-08T02:10:35.015Z,13.40
2022-11-08T02:12:37.726Z,12.77
2022-11-08T02:14:40.387Z,11.90
2022-11-08T02:16:43.066Z,12.27
2022-11-08T02:18:48.151Z,14.38
2022-11-08T02:21:12.153Z,12.80
2022-11-08T02:23:23.717Z,12.73
2022-11-08T02:25:27.264Z,12.32
2022-11-08T02:27:29.902Z,14.40
2022-11-08T02:29:36.911Z,13.88
2022-11-08T02:31:39.507Z,12.82
2022-11-08T02:33:42.911Z,12.80
2022-11-08T02:35:49.651Z,11.93
2022-11-08T02:37:52.414Z,12.75
2022-11-08T02:39:55.094Z,12.48
2022-11-08T02:41:57.657Z,14.07
2022-11-08T02:44:00.306Z,13.05
2022-11-08T02:46:03.000Z,12.88
2022-11-08T02:48:06.047Z,13.75
2022-11-08T02:50:09.126Z,13.45
2022-11-08T02:52:11.767Z,14.30
2022-11-08T02:54:14.392Z,14.18
2022-11-08T02:56:17.338Z,14.75
2022-11-08T02:58:20.525Z,13.85
2022-11-08T03:00:23.540Z,13.88
2022-11-08T03:02:26.277Z,13.63
2022-11-08T03:04:29.002Z,14.68
2022-11-08T03:06:31.646Z,12.57
2022-11-08T03:08:34.294Z,12.45
2022-11-08T03:10:36.877Z,12.43
2022-11-08T03:12:39.998Z,12.43
2022-11-08T03:14:42.600Z,12.15
2022-11-08T03:16:45.200Z,12.63
2022-11-08T03:18:47.874Z,13.07
2022-11-08T03:20:50.451Z,12.65
2022-11-08T03:23:01.149Z,13.32
2022-11-08T03:25:04.152Z,12.98
2022-11-08T03:27:07.107Z,13.07
2022-11-08T03:29:09.921Z,13.02
2022-11-08T03:31:12.517Z,13.88
2022-11-08T03:33:15.093Z,15.45
2022-11-08T03:35:17.861Z,13.27
2022-11-08T03:37:20.616Z,13.75
2022-11-08T03:39:23.279Z,12.82
2022-11-08T03:41:26.199Z,13.27
2022-11-08T03:43:28.807Z,13.20
2022-11-08T03:45:31.450Z,13.85
2022-11-08T03:47:41.180Z,14.48
2022-11-08T03:49:43.817Z,12.18
2022-11-08T03:51:46.483Z,13.98
2022-11-08T03:53:49.011Z,13.85
2022-11-08T03:55:51.631Z,12.48
2022-11-08T03:57:55.045Z,13.88
2022-11-08T03:59:57.675Z,13.00
2022-11-08T04:02:00.384Z,12.75
2022-11-08T04:04:03.340Z,13.43
2022-11-08T04:06:06.234Z,14.30
2022-11-08T04:08:08.906Z,12.32
2022-11-08T04:10:12.714Z,13.57
2022-11-08T04:12:33.917Z,13.00
2022-11-08T04:14:54.890Z,12.98
2022-11-08T04:16:57.474Z,13.63
2022-11-08T04:19:33.053Z,14.48
2022-11-08T04:21:35.760Z,12.57
2022-11-08T04:23:38.523Z,14.98
2022-11-08T04:25:41.570Z,12.88
2022-11-08T04:27:44.240Z,13.48
2022-11-08T04:29:46.825Z,14.98
2022-11-08T04:31:49.428Z,14.55
2022-11-08T04:33:52.345Z,14.80
2022-11-08T04:35:55.067Z,11.80
2022-11-08T04:38:00.096Z,14.32
2022-11-08T04:40:02.715Z,13.70
2022-11-08T04:42:05.501Z,14.63
2022-11-08T04:44:09.368Z,13.30
2022-11-08T04:46:17.365Z,13.90
2022-11-08T04:48:20.352Z,15.30
2022-11-08T04:50:23.378Z,12.38
2022-11-08T04:52:26.000Z,15.85
2022-11-08T04:54:28.615Z,12.88
2022-11-08T04:56:32.421Z,16.58
2022-11-08T04:58:40.858Z,12.60
2022-11-08T05:00:43.572Z,15.60
2022-11-08T05:02:46.336Z,16.38
2022-11-08T05:04:49.076Z,14.35
2022-11-08T05:06:51.757Z,13.93
2022-11-08T05:08:56.196Z,15.40
2022-11-08T05:11:04.261Z,14.75
2022-11-08T05:13:06.927Z,15.25
2022-11-08T05:15:10.113Z,15.52
2022-11-08T05:17:12.952Z,15.57
2022-11-08T05:19:35.427Z,15.35
2022-11-08T05:21:56.805Z,15.70
2022-11-08T05:24:00.040Z,14.60
2022-11-08T05:26:02.756Z,15.77
2022-11-08T05:28:05.391Z,14.68
2022-11-08T05:30:08.410Z,15.18
2022-11-08T05:32:11.389Z,15.23
2022-11-08T05:34:14.069Z,15.57
2022-11-08T05:36:17.048Z,13.18
2022-11-08T05:38:20.511Z,12.57
2022-11-08T05:40:23.405Z,13.15
2022-11-08T05:42:26.116Z,12.07
2022-11-08T05:44:28.692Z,14.88
2022-11-08T05:46:31.311Z,12.93
2022-11-08T05:48:34.056Z,12.73
2022-11-08T05:50:37.362Z,12.77
2022-11-08T05:52:40.448Z,12.52
2022-11-08T05:54:43.130Z,12.63
2022-11-08T05:56:45.734Z,12.45
2022-11-08T05:58:48.504Z,12.65
2022-11-08T06:00:51.356Z,12.70
2022-11-08T06:02:54.458Z,13.35
2022-11-08T06:04:57.348Z,11.40
2022-11-08T06:07:00.049Z,12.18
2022-11-08T06:09:02.728Z,11.38
2022-11-08T06:11:07.451Z,12.27
2022-11-08T06:13:11.039Z,12.55
2022-11-08T06:15:14.443Z,23.83
2022-11-08T06:17:17.137Z,13.13
2022-11-08T06:19:19.833Z,12.10
2022-11-08T06:21:23.317Z,12.30
2022-11-08T06:23:26.585Z,11.43
2022-11-08T06:25:29.230Z,11.65
2022-11-08T06:27:32.261Z,11.05
2022-11-08T06:29:34.954Z,11.07
2022-11-08T06:31:42.679Z,11.40
2022-11-08T06:33:45.909Z,11.98
2022-11-08T06:35:48.509Z,10.93
2022-11-08T06:37:51.239Z,9.98
2022-11-08T06:39:53.929Z,10.95
2022-11-08T06:41:56.554Z,10.68
2022-11-08T06:43:59.489Z,11.18
2022-11-08T06:46:02.725Z,10.48
2022-11-08T06:48:07.126Z,10.05
2022-11-08T06:50:10.131Z,11.90
2022-11-08T06:52:13.009Z,10.23
2022-11-08T06:54:17.938Z,11.73
2022-11-08T06:56:20.888Z,11.15
2022-11-08T06:58:23.476Z,10.88
2022-11-08T07:00:26.706Z,11.07
2022-11-08T07:02:29.678Z,12.18
2022-11-08T07:04:32.682Z,11.77
2022-11-08T07:06:35.442Z,11.95
2022-11-08T07:08:38.105Z,12.60
2022-11-08T07:10:40.939Z,10.45
2022-11-08T07:12:43.552Z,12.52
2022-11-08T07:14:46.126Z,12.93
2022-11-08T07:16:49.230Z,11.98
2022-11-08T07:18:52.005Z,11.98
2022-11-08T07:20:59.955Z,13.80
2022-11-08T07:23:02.790Z,11.13
2022-11-08T07:25:05.988Z,13.77
2022-11-08T07:27:08.696Z,11.60
2022-11-08T07:29:15.821Z,12.10
2022-11-08T07:31:18.883Z,12.25
2022-11-08T07:33:22.146Z,12.50
2022-11-08T07:35:27.877Z,11.55
2022-11-08T07:37:30.612Z,11.05
2022-11-08T07:39:33.245Z,10.45
2022-11-08T07:41:35.927Z,11.00
2022-11-08T07:43:38.549Z,10.10
2022-11-08T07:45:41.931Z,12.35
2022-11-08T07:47:44.575Z,11.82
2022-11-08T07:49:47.135Z,10.05
2022-11-08T07:51:49.800Z,10.00
2022-11-08T07:53:52.536Z,10.80
2022-11-08T07:55:55.460Z,9.85
2022-11-08T07:58:02.321Z,10.95
2022-11-08T08:00:07.841Z,9.80
2022-11-08T08:02:14.834Z,11.25
2022-11-08T08:04:17.538Z,10.80
2022-11-08T08:06:20.363Z,10.50
2022-11-08T08:08:23.324Z,9.68
2022-11-08T08:10:27.667Z,10.77
2022-11-08T08:12:30.377Z,10.15
2022-11-08T08:14:32.990Z,10.32
2022-11-08T08:16:37.053Z,11.35
2022-11-08T08:18:39.703Z,10.18
2022-11-08T08:20:42.316Z,9.20
2022-11-08T08:22:49.084Z,9.93
2022-11-08T08:24:51.691Z,9.65
2022-11-08T08:26:55.132Z,9.15
2022-11-08T08:28:57.867Z,9.88
2022-11-08T08:31:00.645Z,8.88
2022-11-08T08:33:27.492Z,9.60
2022-11-08T08:35:30.919Z,9.18
2022-11-08T08:37:33.603Z,7.90
2022-11-08T08:39:36.309Z,9.85
2022-11-08T08:41:38.972Z,10.00
2022-11-08T08:43:41.830Z,9.40
2022-11-08T08:45:44.793Z,9.90
2022-11-08T08:47:55.783Z,8.75
2022-11-08T08:49:59.172Z,9.07
2022-11-08T08:52:02.328Z,10.43
2022-11-08T08:54:06.277Z,9.50
2022-11-08T08:56:09.630Z,10.20
2022-11-08T08:58:12.484Z,8.82
2022-11-08T09:02:41.497Z,11.45
2022-11-08T09:04:45.990Z,9.52
2022-11-08T09:06:49.480Z,9.50
2022-11-08T09:08:52.858Z,11.38
2022-11-08T09:10:58.247Z,9.30
2022-11-08T09:13:02.576Z,9.55
2022-11-08T09:15:07.238Z,9.43
2022-11-08T09:17:10.454Z,9.52
2022-11-08T09:19:13.614Z,8.65
2022-11-08T09:21:16.778Z,9.75
2022-11-08T09:23:20.247Z,10.15
2022-11-08T09:25:23.196Z,9.60
2022-11-08T09:27:28.542Z,8.55
2022-11-08T09:29:32.178Z,10.18
2022-11-08T09:31:35.009Z,9.95
2022-11-08T09:33:39.693Z,9.45
2022-11-08T09:35:48.714Z,11.40
2022-11-08T09:37:54.115Z,9.48
2022-11-08T09:39:56.817Z,10.05
2022-11-08T09:42:15.425Z,8.88
2022-11-08T09:44:40.683Z,9.13
2022-11-08T09:46:52.869Z,9.13
2022-11-08T09:48:58.898Z,10.18
2022-11-08T09:51:09.799Z,9.73
2022-11-08T09:53:24.404Z,11.25
2022-11-08T09:55:50.291Z,10.85
2022-11-08T09:57:58.929Z,8.82
2022-11-08T10:00:06.721Z,11.50
2022-11-08T10:02:18.212Z,10.07
2022-11-08T10:04:26.383Z,10.68
2022-11-08T10:07:02.173Z,9.18
2022-11-08T10:09:31.826Z,10.18
2022-11-08T10:12:09.902Z,10.13
2022-11-08T10:14:19.810Z,10.38
2022-11-08T10:16:28.170Z,9.55
2022-11-08T10:19:02.587Z,11.15
2022-11-08T10:21:23.514Z,9.63
2022-11-08T10:23:40.364Z,11.43
2022-11-08T10:25:53.906Z,10.10
2022-11-08T10:28:00.291Z,9.00
2022-11-08T10:30:07.629Z,10.15
2022-11-08T10:32:21.681Z,10.20
2022-11-08T10:34:28.406Z,9.57
2022-11-08T10:36:58.395Z,9.68
2022-11-08T10:39:09.721Z,10.30
2022-11-08T10:41:26.538Z,10.75
2022-11-08T10:43:41.716Z,9.77
2022-11-08T10:45:44.347Z,10.02
2022-11-08T10:47:47.597Z,9.65
2022-11-08T10:49:50.977Z,10.40
2022-11-08T10:51:56.409Z,10.07
2022-11-08T10:53:59.131Z,10.43
2022-11-08T10:56:04.431Z,11.27
2022-11-08T10:58:30.096Z,11.50
2022-11-08T11:00:33.735Z,10.65
2022-11-08T11:02:37.100Z,11.00
2022-11-08T11:04:39.879Z,10.70
2022-11-08T11:06:42.562Z,11.50
2022-11-08T11:08:55.672Z,12.05
2022-11-08T11:11:22.904Z,10.82
2022-11-08T11:13:29.501Z,11.00
2022-11-08T11:15:56.205Z,11.15
2022-11-08T11:17:58.883Z,10.73
2022-11-08T11:20:01.944Z,12.38
2022-11-08T11:22:08.221Z,10.93
2022-11-08T11:24:19.361Z,10.65
2022-11-08T11:29:06.763Z,12.10
2022-11-08T11:31:17.206Z,12.60
2022-11-08T11:33:26.176Z,11.85
2022-11-08T11:35:44.340Z,12.32
2022-11-08T11:37:48.800Z,12.40
2022-11-08T11:40:00.339Z,13.85
2022-11-08T11:42:39.325Z,10.88
2022-11-08T11:44:59.015Z,13.27
2022-11-08T11:47:14.871Z,13.55
2022-11-08T11:49:21.142Z,13.30
2022-11-08T11:51:28.784Z,14.38
2022-11-08T11:53:33.427Z,16.02
2022-11-08T11:55:47.181Z,14.43
2022-11-08T11:58:15.188Z,14.60
2022-11-08T12:00:18.328Z,15.93
2022-11-08T12:02:29.897Z,16.48
2022-11-08T12:05:06.763Z,14.10
2022-11-08T12:07:15.023Z,15.18
2022-11-08T12:09:45.785Z,16.02
2022-11-08T12:12:29.958Z,14.15
2022-11-08T12:14:55.772Z,15.13
2022-11-08T12:17:43.009Z,13.85
2022-11-08T12:19:48.295Z,14.77
2022-11-08T12:22:04.118Z,15.30
2022-11-08T12:24:19.626Z,14.82
2022-11-08T12:26:50.449Z,13.15
2022-11-08T12:29:26.404Z,15.77
2022-11-08T12:31:50.656Z,17.05
2022-11-08T12:34:03.757Z,14.82
2022-11-08T12:36:27.005Z,15.35
2022-11-08T12:38:47.477Z,15.32
2022-11-08T12:41:05.040Z,15.45
2022-11-08T12:43:35.141Z,15.30
2022-11-08T12:45:55.708Z,15.02
2022-11-08T12:47:58.481Z,15.15
2022-11-08T12:50:24.067Z,14.13
2022-11-08T12:52:42.828Z,14.48
2022-11-08T12:54:53.919Z,17.15
2022-11-08T12:57:02.766Z,14.85
2022-11-08T12:59:18.673Z,15.45
2022-11-08T13:01:23.267Z,15.65
2022-11-08T13:03:51.246Z,18.00
2022-11-08T13:06:15.317Z,15.13
2022-11-08T13:08:31.760Z,17.40
2022-11-08T13:10:48.720Z,17.55
2022-11-08T13:13:23.892Z,16.70
2022-11-08T13:15:28.354Z,15.20
2022-11-08T13:17:31.761Z,18.10
2022-11-08T13:19:49.895Z,16.27
2022-11-08T13:21:52.629Z,15.75
2022-11-08T13:24:42.742Z,17.52
2022-11-08T13:26:42.196Z,15.95
2022-11-08T13:28:46.056Z,16.73
2022-11-08T13:31:00.512Z,15.07
2022-11-08T13:33:29.303Z,15.50
2022-11-08T13:35:36.913Z,17.55
2022-11-08T13:37:53.774Z,16.42
2022-11-08T13:40:21.193Z,15.02
2022-11-08T13:42:23.706Z,15.48
2022-11-08T13:44:59.860Z,16.65
2022-11-08T13:47:02.586Z,16.27
2022-11-08T13:49:15.708Z,14.45
2022-11-08T13:51:34.646Z,15.60
2022-11-08T13:53:51.614Z,13.80
2022-11-08T13:56:06.940Z,14.38
2022-11-08T13:58:42.789Z,15.23
2022-11-08T14:00:47.285Z,12.27
2022-11-08T14:02:49.993Z,13.73
2022-11-08T14:04:54.724Z,14.38
2022-11-08T14:07:25.815Z,14.80
2022-11-08T14:09:47.211Z,12.85
2022-11-08T14:12:16.308Z,13.33
2022-11-08T14:14:36.415Z,12.48
2022-11-08T14:16:59.517Z,14.27
2022-11-08T14:19:37.886Z,13.45
2022-11-08T14:21:48.172Z,13.82
2022-11-08T14:23:51.430Z,13.05
2022-11-08T14:26:00.924Z,13.07
2022-11-08T14:28:04.864Z,13.73
2022-11-08T14:30:19.435Z,12.80
2022-11-08T14:32:22.101Z,13.00
2022-11-08T14:34:36.574Z,11.77
2022-11-08T14:36:45.195Z,11.95
2022-11-08T14:39:03.416Z,11.80
2022-11-08T14:41:07.542Z,11.80
2022-11-08T14:43:12.351Z,12.15
2022-11-08T14:45:20.708Z,12.90
2022-11-08T14:47:31.805Z,12.45
2022-11-08T14:49:36.772Z,13.07
2022-11-08T14:51:40.574Z,12.75
2022-11-08T14:53:49.255Z,12.07
2022-11-08T14:56:18.538Z,12.50
2022-11-08T14:58:21.362Z,12.15
2022-11-08T15:00:29.353Z,12.35
2022-11-08T15:02:33.280Z,12.13
2022-11-08T15:04:40.738Z,12.82
2022-11-08T15:06:56.643Z,12.85
2022-11-08T15:08:59.511Z,14.30
2022-11-08T15:11:08.076Z,12.95
2022-11-08T15:13:11.787Z,13.05
2022-11-08T15:15:30.594Z,13.00
2022-11-08T15:17:37.328Z,13.30
2022-11-08T15:19:43.203Z,14.93
2022-11-08T15:21:51.890Z,13.70
2022-11-08T15:24:11.504Z,12.95
2022-11-08T15:26:27.445Z,12.30
2022-11-08T15:28:34.455Z,11.75
2022-11-08T15:30:39.451Z,13.13
2022-11-08T15:32:42.571Z,13.48
2022-11-08T15:34:48.694Z,13.45
2022-11-08T15:36:52.275Z,14.05
2022-11-08T15:38:55.052Z,13.60
2022-11-08T15:41:00.955Z,14.35
2022-11-08T15:43:04.245Z,13.77
2022-11-08T15:45:29.142Z,12.15
2022-11-08T15:47:43.491Z,13.80
2022-11-08T15:49:46.077Z,12.57
2022-11-08T15:51:50.544Z,14.20
2022-11-08T15:53:53.223Z,13.07
2022-11-08T15:56:04.958Z,12.27
2022-11-08T15:58:23.016Z,12.45
2022-11-08T16:00:28.816Z,10.88
2022-11-08T16:02:31.453Z,12.98
2022-11-08T16:04:34.035Z,12.80
2022-11-08T16:06:36.653Z,12.52
2022-11-08T16:08:40.366Z,12.27
2022-11-08T16:10:46.626Z,11.57
2022-11-08T16:12:49.231Z,11.95
2022-11-08T16:14:52.221Z,11.63
2022-11-08T16:16:54.907Z,12.38
2022-11-08T16:18:57.505Z,12.00
2022-11-08T16:21:00.400Z,12.05
2022-11-08T16:23:08.721Z,11.82
2022-11-08T16:25:11.392Z,10.85
2022-11-08T16:27:15.527Z,11.25
2022-11-08T16:29:24.069Z,10.15
2022-11-08T16:31:26.609Z,12.38
2022-11-08T16:33:31.278Z,11.63
2022-11-08T16:35:34.058Z,11.02
2022-11-08T16:37:37.995Z,11.82
2022-11-08T16:39:40.532Z,10.77
2022-11-08T16:41:43.368Z,10.82
2022-11-08T16:43:46.253Z,11.68
2022-11-08T16:46:04.884Z,11.57
2022-11-08T16:48:18.479Z,11.65
2022-11-08T16:50:26.437Z,11.88
2022-11-08T16:52:29.091Z,10.77
2022-11-08T16:54:31.677Z,11.52
2022-11-08T16:56:34.323Z,11.07
2022-11-08T16:58:37.045Z,12.65
2022-11-08T17:00:41.898Z,12.23
2022-11-08T17:02:48.273Z,12.38
2022-11-08T17:04:50.904Z,11.48
2022-11-08T17:06:53.632Z,11.02
2022-11-08T17:08:56.378Z,12.90
2022-11-08T17:10:58.970Z,13.18
2022-11-08T17:13:01.913Z,11.48
2022-11-08T17:15:04.873Z,11.25
2022-11-08T17:17:07.611Z,12.95
2022-11-08T17:19:10.329Z,10.40
2022-11-08T17:21:43.069Z,10.15
2022-11-08T17:23:37.633Z,10.48
2022-11-08T17:25:43.132Z,12.05
2022-11-08T17:27:46.469Z,11.98
2022-11-08T17:29:49.108Z,11.60
2022-11-08T17:31:51.690Z,11.48
2022-11-08T17:33:55.828Z,11.25
2022-11-08T17:36:07.440Z,11.88
2022-11-08T17:42:15.617Z,12.38
2022-11-08T17:44:18.189Z,10.80
2022-11-08T17:46:20.802Z,11.50
2022-11-08T17:48:23.512Z,11.02
2022-11-08T17:50:26.115Z,12.75
2022-11-08T17:52:28.754Z,12.27
2022-11-08T17:54:31.378Z,11.57
2022-11-08T17:56:34.067Z,10.15
2022-11-08T17:58:38.105Z,10.85
2022-11-08T18:00:40.862Z,11.30
2022-11-08T18:02:43.581Z,10.63
2022-11-08T18:04:46.305Z,10.57
2022-11-08T18:06:48.974Z,10.73
2022-11-08T18:08:51.745Z,10.10
2022-11-08T18:10:55.435Z,10.07
2022-11-08T18:12:57.994Z,9.77
2022-11-08T18:15:00.591Z,10.15
2022-11-08T18:17:05.288Z,9.20
2022-11-08T18:19:07.990Z,11.20
2022-11-08T18:21:11.971Z,10.57
2022-11-08T18:23:14.746Z,9.77
2022-11-08T18:25:17.398Z,10.25
2022-11-08T18:27:20.095Z,11.93
2022-11-08T18:29:22.678Z,11.38
2022-11-08T18:31:26.493Z,9.98
2022-11-08T18:33:29.536Z,11.38
2022-11-08T18:35:32.248Z,10.25
2022-11-08T18:37:34.934Z,9.77
2022-11-08T18:39:37.579Z,10.50
2022-11-08T18:41:40.204Z,10.80
2022-11-08T18:43:42.867Z,11.30
2022-11-08T18:45:45.500Z,9.98
2022-11-08T18:47:48.401Z,10.32
2022-11-08T18:49:51.002Z,11.13
2022-11-08T18:51:53.889Z,10.13
2022-11-08T18:53:56.688Z,9.32
2022-11-08T18:55:59.426Z,10.75
2022-11-08T18:58:02.835Z,10.07
2022-11-08T19:00:06.390Z,10.07
2022-11-08T19:02:11.702Z,9.23
2022-11-08T19:04:14.450Z,9.50
2022-11-08T19:06:17.020Z,9.35
2022-11-08T19:08:25.282Z,9.35
2022-11-08T19:10:27.987Z,11.07
2022-11-08T19:12:30.613Z,9.57
2022-11-08T19:14:35.509Z,9.50
2022-11-08T19:16:38.356Z,9.90
2022-11-08T19:18:42.488Z,9.02
2022-11-08T19:20:45.111Z,8.43
2022-11-08T19:22:47.701Z,9.98
2022-11-08T19:24:50.456Z,9.80
2022-11-08T19:26:53.202Z,9.50
2022-11-08T19:28:57.420Z,9.02
2022-11-08T19:31:01.470Z,8.68
2022-11-08T19:33:04.266Z,8.18
2022-11-08T19:35:07.447Z,8.90
2022-11-08T19:37:10.078Z,8.55
2022-11-08T19:39:13.304Z,8.13
2022-11-08T19:41:19.049Z,9.35
2022-11-08T19:43:21.885Z,8.35
2022-11-08T19:45:25.442Z,9.50
2022-11-08T19:47:28.258Z,8.52
2022-11-08T19:49:31.087Z,8.88
2022-11-08T19:51:34.907Z,8.32
2022-11-08T19:53:37.625Z,8.07
2022-11-08T19:55:40.300Z,7.38
2022-11-08T19:57:43.020Z,8.90
2022-11-08T19:59:46.184Z,8.18
2022-11-08T20:01:48.910Z,8.02
2022-11-08T20:03:51.764Z,8.38
2022-11-08T20:05:55.500Z,8.23
2022-11-08T20:07:58.372Z,8.05
2022-11-08T20:10:01.081Z,7.55
2022-11-08T20:12:05.832Z,8.23
2022-11-08T20:14:10.980Z,7.70
2022-11-08T20:16:16.610Z,9.07
2022-11-08T20:18:20.598Z,8.43
2022-11-08T20:20:23.462Z,8.38
2022-11-08T20:22:26.690Z,8.50
2022-11-08T20:24:29.340Z,8.32
2022-11-08T20:26:32.074Z,7.80
2022-11-08T20:28:36.353Z,7.72
2022-11-08T20:30:44.134Z,7.82
2022-11-08T20:32:46.742Z,8.07
2022-11-08T20:34:50.744Z,8.38
2022-11-08T20:36:53.520Z,9.80
2022-11-08T20:38:59.068Z,9.00
2022-11-08T20:41:07.168Z,8.43
2022-11-08T20:43:09.828Z,8.00
2022-11-08T20:45:15.112Z,8.93
2022-11-08T20:47:19.119Z,7.40
2022-11-08T20:49:21.783Z,8.80
2022-11-08T20:51:24.464Z,10.48
2022-11-08T20:53:28.217Z,7.65
2022-11-08T20:55:31.001Z,7.53
2022-11-08T20:57:33.629Z,7.85
2022-11-08T20:59:36.401Z,6.60
2022-11-08T21:01:39.584Z,8.10
2022-11-08T21:03:43.066Z,7.75
2022-11-08T21:05:56.946Z,8.02
2022-11-08T21:08:56.135Z,7.53
2022-11-08T21:12:44.871Z,8.07
2022-11-08T21:14:47.506Z,6.95
2022-11-08T21:19:13.725Z,8.13
2022-11-08T21:21:19.394Z,9.40
2022-11-08T21:23:22.652Z,7.82
2022-11-08T21:25:25.286Z,7.18
2022-11-08T21:27:29.975Z,7.50
2022-11-08T21:29:32.820Z,7.30
2022-11-08T21:31:35.645Z,7.95
2022-11-08T21:33:39.081Z,9.30
2022-11-08T21:35:41.768Z,8.00
2022-11-08T21:37:44.480Z,7.18
2022-11-08T21:39:47.152Z,8.00
2022-11-08T21:41:49.897Z,8.10
2022-11-08T21:43:52.601Z,7.50
2022-11-08T21:45:55.271Z,8.25
2022-11-08T21:47:57.870Z,7.90
2022-11-08T21:50:00.587Z,7.88
2022-11-08T21:52:03.872Z,7.15
2022-11-08T21:54:06.747Z,7.90
2022-11-08T21:56:09.432Z,7.32
2022-11-08T21:58:12.051Z,7.28
2022-11-08T22:00:15.170Z,8.48
2022-11-08T22:02:18.581Z,7.78
2022-11-08T22:04:21.225Z,9.35
2022-11-08T22:06:24.226Z,8.60
2022-11-08T22:08:27.082Z,8.50
2022-11-08T22:10:29.709Z,7.40
2022-11-08T22:12:32.820Z,7.88
2022-11-08T22:14:35.525Z,9.13
2022-11-08T22:16:38.148Z,8.25
2022-11-08T22:21:21.763Z,8.82
2022-11-08T22:23:24.423Z,9.23
2022-11-08T22:25:27.096Z,7.90
2022-11-08T22:27:29.773Z,8.43
2022-11-08T22:29:32.524Z,7.82
2022-11-08T22:31:35.482Z,8.38
2022-11-08T22:33:38.114Z,8.57
2022-11-08T22:35:40.793Z,9.77
2022-11-08T22:37:43.469Z,9.80
2022-11-08T22:39:46.106Z,7.65
2022-11-08T22:41:51.069Z,9.52
2022-11-08T22:43:53.986Z,10.25
2022-11-08T22:45:56.638Z,8.05
2022-11-08T22:47:59.362Z,8.27
2022-11-08T22:50:02.099Z,8.57
2022-11-08T22:52:06.207Z,8.45
2022-11-08T22:54:09.748Z,7.93
2022-11-08T22:56:12.367Z,8.70
2022-11-08T22:58:15.138Z,8.63
2022-11-08T23:00:17.910Z,8.50
2022-11-08T23:02:20.538Z,7.75
2022-11-08T23:04:23.190Z,6.93
2022-11-08T23:06:26.074Z,7.10
2022-11-08T23:08:30.128Z,9.40
2022-11-08T23:10:32.877Z,6.68
2022-11-08T23:12:53.894Z,7.72
2022-11-08T23:15:14.905Z,8.73
2022-11-08T23:17:17.614Z,7.50
2022-11-08T23:19:41.949Z,7.72
2022-11-08T23:22:02.981Z,7.93
2022-11-08T23:24:21.580Z,6.95
2022-11-08T23:26:44.108Z,7.25
2022-11-08T23:29:05.358Z,7.93
2022-11-08T23:31:31.513Z,6.57
2022-11-08T23:33:34.213Z,7.03
2022-11-08T23:35:36.864Z,6.80
2022-11-08T23:37:40.330Z,7.20
2022-11-08T23:40:01.469Z,6.75
2022-11-08T23:42:24.600Z,6.00
2022-11-08T23:44:28.016Z,6.95
2022-11-08T23:46:30.684Z,7.32
2022-11-08T23:48:33.579Z,7.35
2022-11-08T23:50:36.190Z,7.10
2022-11-08T23:52:38.874Z,6.50
2022-11-08T23:54:41.612Z,7.93
2022-11-08T23:56:44.929Z,6.80
2022-11-08T23:58:47.627Z,7.00
